FW9090 Weather Reports


Display with metric or nautical units.
time (UTC)temp
F
wind
direction
speed
MPH
gust
MPH
rain 1hr
in
rain 24hr
in
rain mn
in
humidity
%
barometer
mb
20260506170529 63 0 0.0 4.0 0.00 0.00 0.00 71 1020.4
20260506170041 63 271 1.0 4.0 0.00 0.00 0.00 72 1020.4
20260506165528 62 0 0.0 4.0 0.00 0.00 0.00 73 1020.5
20260506165029 62 254 0.0 4.0 0.00 0.00 0.00 73 1020.4
20260506164541 61 215 1.0 6.0 0.00 0.00 0.00 73 1020.5
20260506164028 62 256 1.0 6.0 0.00 0.00 0.00 73 1020.4
20260506163534 61 257 1.0 6.0 0.00 0.00 0.00 73 1020.4
20260506163047 61 325 0.0 5.0 0.00 0.00 0.00 74 1020.6
20260506162525 61 282 2.0 5.0 0.00 0.00 0.00 74 1020.5
20260506162030 61 314 1.0 5.0 0.00 0.00 0.00 74 1020.6
20260506161544 61 221 1.0 4.0 0.00 0.00 0.00 74 1020.6
20260506161029 60 209 1.0 6.0 0.00 0.00 0.00 75 1020.6
20260506160529 60 180 1.0 6.0 0.00 0.00 0.00 76 1020.6
20260506160046 60 177 2.0 6.0 0.00 0.00 0.00 76 1020.5
20260506155529 59 0 0.0 5.0 0.00 0.00 0.00 77 1020.6
20260506155029 59 0 1.0 6.0 0.00 0.00 0.00 78 1020.7
20260506154545 59 200 3.0 6.0 0.00 0.00 0.00 78 1020.7
20260506154031 59 220 0.0 4.0 0.00 0.00 0.00 78 1020.6
20260506153530 58 209 0.0 5.0 0.00 0.00 0.00 79 1020.7
20260506153045 58 164 1.0 5.0 0.00 0.00 0.00 79 1020.7
20260506152528 58 208 1.0 4.0 0.00 0.00 0.00 80 1020.7
20260506152028 57 0 0.0 3.0 0.00 0.00 0.00 81 1020.7
20260506151548 57 0 0.0 4.0 0.00 0.00 0.00 82 1020.7
20260506151030 56 0 1.0 4.0 0.00 0.00 0.00 82 1020.6
20260506150531 56 256 0.0 3.0 0.00 0.00 0.00 83 1020.6
20260506150042 56 0 1.0 3.0 0.00 0.00 0.00 85 1020.5
20260506145529 55 0 0.0 0.0 0.00 0.00 0.00 87 1020.5
20260506145029 55 0 0.0 0.0 0.00 0.00 0.00 88 1020.6
20260506144544 54 0 0.0 0.0 0.00 0.00 0.00 88 1020.5
20260506144029 54 0 0.0 0.0 0.00 0.00 0.00 88 1020.5
20260506143529 54 0 0.0 0.0 0.00 0.00 0.00 88 1020.5
20260506143042 54 0 0.0 0.0 0.00 0.00 0.00 89 1020.7
20260506142528 53 0 0.0 0.0 0.00 0.00 0.00 89 1020.4
20260506142028 53 0 0.0 0.0 0.00 0.00 0.00 89 1020.3
20260506141540 53 0 0.0 0.0 0.00 0.00 0.00 89 1020.3
20260506141029 53 0 0.0 0.0 0.00 0.00 0.00 89 1020.3
20260506140529 53 0 0.0 0.0 0.00 0.00 0.00 89 1020.3
20260506140046 53 0 0.0 0.0 0.00 0.00 0.00 89 1020.3
20260506135528 53 0 0.0 0.0 0.00 0.00 0.00 89 1020.0
20260506135029 53 0 0.0 0.0 0.00 0.00 0.00 89 1019.9
20260506134539 53 0 0.0 0.0 0.00 0.00 0.00 89 1019.9
20260506134028 53 0 0.0 0.0 0.00 0.00 0.00 89 1019.9
20260506133529 53 0 0.0 0.0 0.00 0.00 0.00 89 1019.9
20260506133040 53 0 0.0 0.0 0.00 0.00 0.00 89 1019.9
20260506132532 53 0 0.0 0.0 0.00 0.00 0.00 89 1019.9
20260506132032 53 0 0.0 0.0 0.00 0.00 0.00 88 1019.8
20260506131548 54 0 0.0 0.0 0.00 0.00 0.00 88 1019.8
20260506131029 54 0 0.0 0.0 0.00 0.00 0.00 88 1019.6
20260506130526 54 0 0.0 0.0 0.00 0.00 0.00 88 1019.6
20260506130054 54 0 0.0 0.0 0.00 0.00 0.00 88 1019.6
20260506125532 54 0 0.0 0.0 0.00 0.00 0.00 87 1019.7
20260506125031 54 0 0.0 0.0 0.00 0.00 0.00 87 1019.6
20260506124538 54 0 0.0 0.0 0.00 0.00 0.00 87 1019.5
20260506124028 54 0 0.0 0.0 0.00 0.00 0.00 87 1019.5
20260506123528 54 0 0.0 0.0 0.00 0.00 0.00 88 1019.5
20260506123045 54 0 0.0 0.0 0.00 0.00 0.00 87 1019.5
20260506122528 54 0 0.0 0.0 0.00 0.00 0.00 88 1019.5
20260506122030 54 0 0.0 0.0 0.00 0.00 0.00 88 1019.4
20260506121541 54 0 0.0 0.0 0.00 0.00 0.00 88 1019.4
20260506121029 54 0 0.0 0.0 0.00 0.00 0.00 88 1019.4
20260506120531 54 0 0.0 0.0 0.00 0.00 0.00 88 1019.4
20260506120040 54 0 0.0 0.0 0.00 0.00 0.00 88 1019.4
20260506115529 54 0 0.0 0.0 0.00 0.00 0.00 88 1019.4
20260506115028 54 0 0.0 0.0 0.00 0.00 0.00 88 1019.3
20260506114540 54 0 0.0 0.0 0.00 0.00 0.00 88 1019.4
20260506114028 54 0 0.0 0.0 0.00 0.00 0.00 88 1019.3
20260506113528 54 0 0.0 0.0 0.00 0.00 0.00 88 1019.3
20260506113046 54 0 0.0 0.0 0.00 0.00 0.00 88 1019.3
20260506112528 54 0 0.0 0.0 0.00 0.00 0.00 88 1019.3
20260506112028 54 0 0.0 0.0 0.00 0.00 0.00 88 1019.2
20260506111540 54 0 0.0 0.0 0.00 0.00 0.00 88 1019.2
20260506111028 54 0 0.0 0.0 0.00 0.00 0.00 88 1019.1
20260506110531 54 0 0.0 0.0 0.00 0.00 0.00 88 1019.2
20260506110051 54 0 0.0 0.0 0.00 0.00 0.00 88 1019.1
20260506105529 54 0 0.0 0.0 0.00 0.00 0.00 88 1019.1
20260506105031 54 0 0.0 0.0 0.00 0.00 0.00 88 1018.9
20260506104547 54 0 0.0 0.0 0.00 0.00 0.00 88 1018.9
20260506104028 53 0 0.0 0.0 0.00 0.00 0.00 88 1019.1
20260506103528 53 0 0.0 0.0 0.00 0.00 0.00 88 1019.1
20260506103048 53 0 0.0 0.0 0.00 0.00 0.00 88 1018.9
20260506102529 53 0 0.0 0.0 0.00 0.00 0.00 88 1019.0
20260506102029 53 0 0.0 0.0 0.00 0.00 0.00 88 1018.9
20260506101550 53 0 0.0 0.0 0.00 0.00 0.00 88 1019.0
20260506101028 53 0 0.0 0.0 0.00 0.00 0.00 88 1018.9
20260506100528 53 0 0.0 0.0 0.00 0.00 0.00 88 1018.9
20260506100058 53 0 0.0 0.0 0.00 0.00 0.00 88 1018.9
20260506095528 53 0 0.0 0.0 0.00 0.02 0.00 89 1018.9
20260506095032 53 0 0.0 0.0 0.00 0.02 0.00 89 1019.0
20260506094544 53 0 0.0 0.0 0.00 0.02 0.00 89 1019.0
20260506094028 53 0 0.0 0.0 0.00 0.02 0.00 89 1018.8
20260506093528 53 0 0.0 0.0 0.00 0.02 0.00 89 1018.7
20260506093044 53 0 0.0 0.0 0.00 0.02 0.00 89 1018.8
20260506092530 53 0 0.0 0.0 0.00 0.02 0.00 89 1018.8
20260506092029 53 0 0.0 0.0 0.00 0.02 0.00 89 1018.8
20260506091540 52 0 0.0 0.0 0.00 0.02 0.00 89 1018.9
20260506091032 52 0 0.0 0.0 0.00 0.02 0.00 89 1018.7
20260506090528 52 0 0.0 0.0 0.00 0.02 0.00 89 1018.8
20260506090039 52 0 0.0 0.0 0.00 0.02 0.00 89 1018.8
20260506085531 52 0 0.0 0.0 0.00 0.06 0.00 90 1018.7
20260506085028 52 0 0.0 0.0 0.00 0.06 0.00 90 1018.8
20260506084559 52 0 0.0 0.0 0.00 0.06 0.00 90 1018.9
20260506084028 51 0 0.0 0.0 0.00 0.06 0.00 90 1018.8
20260506083528 51 0 0.0 0.0 0.00 0.06 0.00 90 1018.7
20260506083043 51 0 0.0 0.0 0.00 0.06 0.00 90 1018.7
20260506082531 51 0 0.0 0.0 0.00 0.06 0.00 90 1018.8
20260506082033 51 0 0.0 1.0 0.00 0.06 0.00 89 1018.7
20260506081546 51 0 0.0 1.0 0.00 0.06 0.00 89 1018.7
20260506081030 51 0 0.0 1.0 0.00 0.06 0.00 89 1018.8
20260506080530 51 0 0.0 1.0 0.00 0.06 0.00 89 1018.8
20260506073047 52 0 0.0 0.0 0.00 0.10 0.00 87 1018.8
20260506072528 52 0 0.0 0.0 0.00 0.10 0.00 87 1018.7
20260506072028 53 0 0.0 0.0 0.00 0.10 0.00 86 1018.7
20260506071545 53 0 0.0 0.0 0.00 0.10 0.00 86 1018.6
20260506071030 53 0 0.0 0.0 0.00 0.10 0.00 86 1018.5
20260506070529 53 0 0.0 0.0 0.00 0.10 0.00 85 1018.6
20260506062028 55 199 0.0 4.0 0.00 0.14 0.10 82 1018.2
20260506061538 55 199 1.0 5.0 0.00 0.14 0.10 82 1018.2
20260506061029 55 179 0.0 5.0 0.00 0.14 0.10 82 1018.1
20260506060529 55 0 0.0 4.0 0.00 0.14 0.10 81 1018.1
20260506051028 57 207 0.0 5.0 0.00 0.16 0.10 81 1017.6
20260506050529 57 219 2.0 5.0 0.00 0.16 0.10 81 1017.7
20260506045027 57 237 1.0 4.0 0.00 0.19 0.10 80 1017.6
20260506044627 57 0 0.0 4.0 0.00 0.19 0.10 80 1017.4
20260506044031 57 276 1.0 4.0 0.00 0.19 0.10 80 1017.4
20260506043529 57 215 1.0 7.0 0.00 0.19 0.10 80 1017.3
20260506043047 57 0 2.0 7.0 0.00 0.19 0.10 79 1017.3
20260506042528 57 208 0.0 6.0 0.00 0.19 0.10 79 1017.1
20260506042028 57 193 2.0 6.0 0.00 0.19 0.10 79 1017.0
20260506041558 58 188 1.0 6.0 0.00 0.19 0.10 79 1017.1
20260506041030 58 317 1.0 5.0 0.00 0.19 0.10 79 1016.9
20260506040529 58 238 1.0 5.0 0.00 0.19 0.10 79 1016.9
20260506040048 58 202 0.0 6.0 0.00 0.19 0.10 79 1016.9
20260506035529 58 0 2.0 6.0 0.00 0.19 0.10 79 1016.7
20260506035029 58 202 1.0 5.0 0.00 0.19 0.10 79 1016.8
20260506034602 58 202 2.0 5.0 0.00 0.19 0.10 78 1016.8
20260506034029 58 164 0.0 9.0 0.00 0.19 0.10 78 1016.7
20260506033528 58 217 1.0 9.0 0.00 0.19 0.10 78 1016.5
20260506033041 58 243 2.0 9.0 0.00 0.19 0.10 77 1016.4
20260506032528 58 209 2.0 6.0 0.00 0.19 0.10 77 1016.3
20260506032028 58 0 1.0 8.0 0.00 0.19 0.10 77 1016.3
20260506031542 58 284 1.0 8.0 0.00 0.19 0.10 76 1016.1
20260506031030 58 186 1.0 5.0 0.00 0.19 0.10 76 1016.1
20260506030528 59 208 0.0 6.0 0.00 0.19 0.10 76 1016.0
20260506030039 59 215 1.0 6.0 0.00 0.19 0.10 76 1016.0
20260506025531 59 224 1.0 8.0 0.00 0.19 0.10 75 1016.0
20260506025028 59 231 2.0 8.0 0.00 0.19 0.10 75 1016.0
20260506024539 59 268 1.0 7.0 0.00 0.19 0.10 75 1015.9
20260506024027 59 284 2.0 7.0 0.00 0.19 0.10 75 1015.8
20260506023529 59 261 2.0 9.0 0.00 0.19 0.10 75 1015.9
20260506023102 59 268 1.0 9.0 0.00 0.19 0.10 75 1015.8
20260506022528 59 283 3.0 9.0 0.00 0.19 0.10 75 1015.8
20260506022029 60 190 1.0 12.0 0.00 0.19 0.10 75 1015.7
20260506021540 60 196 2.0 12.0 0.00 0.19 0.10 75 1015.7
20260506021029 60 196 4.0 12.0 0.00 0.19 0.10 74 1015.7
20260506020528 60 229 2.0 11.0 0.00 0.19 0.10 75 1015.6
20260506020039 60 209 2.0 11.0 0.00 0.19 0.10 74 1015.6
20260506015529 60 201 3.0 10.0 0.00 0.19 0.10 74 1015.6
20260506015031 60 188 2.0 11.0 0.00 0.19 0.10 75 1015.5
20260506014545 60 176 5.0 14.0 0.00 0.19 0.10 74 1015.4
20260506014028 61 214 4.0 14.0 0.00 0.19 0.10 74 1015.5
20260506013529 61 236 5.0 12.0 0.00 0.19 0.10 74 1015.4
20260506013044 61 190 2.0 12.0 0.00 0.19 0.10 74 1015.3
20260506012529 61 199 4.0 9.0 0.00 0.19 0.10 74 1015.3
20260506012029 62 271 1.0 8.0 0.00 0.19 0.10 74 1015.3
20260506011551 62 237 2.0 8.0 0.00 0.19 0.10 74 1015.3
20260506011029 62 282 2.0 10.0 0.00 0.19 0.10 74 1015.3
20260506010529 62 229 2.0 10.0 0.00 0.19 0.10 74 1015.4
20260506010048 62 260 3.0 10.0 0.00 0.19 0.10 74 1015.3
20260506005528 62 304 2.0 9.0 0.00 0.19 0.10 73 1015.4
20260506005029 62 237 3.0 9.0 0.00 0.19 0.10 73 1015.3
20260506004559 62 0 1.0 8.0 0.00 0.19 0.10 74 1015.2
20260506004030 63 295 4.0 9.0 0.00 0.19 0.10 74 1015.3
20260506003529 63 179 2.0 9.0 0.00 0.19 0.10 73 1015.2
20260506003101 62 210 2.0 9.0 0.00 0.19 0.10 74 1015.2
20260506002529 62 204 3.0 8.0 0.00 0.19 0.10 75 1015.2
20260506002030 62 203 2.0 10.0 0.00 0.19 0.10 76 1015.1
20260506001547 62 220 4.0 10.0 0.00 0.19 0.10 75 1015.0
20260506001028 62 216 3.0 9.0 0.00 0.19 0.10 74 1015.1
20260506000529 62 0 2.0 9.0 0.00 0.19 0.10 73 1015.1
20260506000040 62 215 2.0 8.0 0.00 0.19 0.10 74 1015.2
20260505235529 62 268 2.0 8.0 0.00 0.19 0.10 74 1015.1
20260505235029 62 179 3.0 8.0 0.00 0.19 0.10 74 1015.2
20260505234557 62 271 1.0 8.0 0.00 0.19 0.10 74 1015.1
20260505234031 62 217 1.0 8.0 0.00 0.19 0.10 74 1015.2
20260505233532 62 299 2.0 7.0 0.00 0.19 0.10 73 1015.0
20260505233040 62 267 2.0 7.0 0.00 0.19 0.10 73 1015.2
20260505232529 62 202 2.0 8.0 0.00 0.19 0.10 74 1015.2
20260505232030 62 190 2.0 8.0 0.00 0.19 0.10 74 1015.1
20260505231545 62 232 1.0 5.0 0.00 0.19 0.10 75 1015.3
20260505231028 62 0 2.0 6.0 0.00 0.19 0.10 74 1015.2
20260505230530 62 0 2.0 6.0 0.00 0.19 0.10 74 1015.3
20260505230044 62 185 1.0 6.0 0.00 0.19 0.10 75 1015.2
20260505225529 62 176 1.0 4.0 0.00 0.19 0.10 75 1015.3
20260505225033 61 212 0.0 6.0 0.00 0.19 0.10 75 1015.2
20260505224541 61 215 1.0 6.0 0.00 0.19 0.10 75 1015.3
20260505224028 61 187 2.0 6.0 0.00 0.19 0.10 76 1015.2
20260505223528 61 171 2.0 6.0 0.00 0.19 0.10 75 1015.2
20260505223038 61 188 1.0 5.0 0.00 0.19 0.10 76 1015.3
20260505222528 61 115 2.0 5.0 0.00 0.19 0.10 76 1015.3
20260505222027 61 230 1.0 6.0 0.00 0.19 0.10 76 1015.3
20260505221539 61 220 1.0 6.0 0.00 0.19 0.10 76 1015.4
20260505221029 61 223 2.0 6.0 0.00 0.19 0.10 76 1015.3
20260505220529 61 227 2.0 6.0 0.00 0.19 0.10 76 1015.4
20260505220058 61 227 3.0 6.0 0.00 0.19 0.10 76 1015.4
20260505215528 61 161 2.0 4.0 0.00 0.19 0.10 77 1015.4
20260505215028 61 225 2.0 5.0 0.00 0.19 0.10 77 1015.3
20260505214544 61 0 2.0 5.0 0.00 0.19 0.10 77 1015.4
20260505214029 61 201 2.0 5.0 0.00 0.19 0.10 77 1015.5
20260505213529 61 0 1.0 5.0 0.00 0.19 0.10 77 1015.5
20260505213039 61 198 2.0 5.0 0.00 0.19 0.10 77 1015.5
20260505212529 61 130 1.0 6.0 0.00 0.19 0.10 77 1015.6
20260505212029 61 215 3.0 6.0 0.00 0.19 0.10 77 1015.5
20260505211545 61 167 1.0 4.0 0.00 0.19 0.10 77 1015.6
20260505211032 61 202 1.0 4.0 0.00 0.19 0.10 76 1015.6
20260505210527 61 175 0.0 6.0 0.00 0.19 0.10 78 1015.6
20260505210046 61 209 1.0 6.0 0.00 0.19 0.10 77 1015.6
20260505205529 60 182 1.0 5.0 0.00 0.19 0.10 78 1015.5
20260505205032 60 212 0.0 6.0 0.00 0.19 0.10 80 1015.6
20260505204547 60 150 3.0 6.0 0.00 0.19 0.10 78 1015.7
20260505204028 60 195 2.0 6.0 0.00 0.19 0.10 79 1015.7
20260505203529 60 232 2.0 6.0 0.00 0.19 0.10 78 1015.7
20260505203043 60 157 1.0 5.0 0.00 0.19 0.10 78 1015.6
20260505202529 60 0 0.0 3.0 0.00 0.19 0.10 79 1015.7
20260505202028 60 205 0.0 3.0 0.00 0.19 0.10 79 1015.7
20260505201542 60 0 0.0 7.0 0.00 0.19 0.10 78 1015.7
20260505201030 60 264 1.0 7.0 0.00 0.19 0.10 77 1015.7
20260505200532 60 274 2.0 7.0 0.00 0.19 0.10 78 1015.7
20260505200048 60 0 0.0 3.0 0.00 0.19 0.10 78 1015.8
20260505195527 60 236 0.0 6.0 0.00 0.19 0.10 78 1015.7
20260505195028 60 236 2.0 6.0 0.00 0.19 0.10 78 1015.7
20260505194543 60 0 0.0 5.0 0.00 0.19 0.10 78 1015.8
20260505194030 60 296 0.0 5.0 0.00 0.19 0.10 78 1015.8
20260505193527 60 216 1.0 5.0 0.00 0.19 0.10 79 1015.9
20260505193049 59 298 0.0 5.0 0.00 0.19 0.10 78 1015.8
20260505192530 60 214 2.0 5.0 0.00 0.19 0.10 78 1015.8
20260505192031 60 0 1.0 4.0 0.00 0.19 0.10 78 1015.9
20260505191554 60 316 1.0 4.0 0.00 0.19 0.10 77 1015.8
20260505191032 60 184 0.0 5.0 0.00 0.19 0.10 79 1015.9
20260505190527 59 223 1.0 5.0 0.00 0.19 0.10 78 1015.8
20260505190051 59 261 1.0 5.0 0.00 0.19 0.10 79 1015.7
20260505185529 59 207 1.0 5.0 0.00 0.19 0.10 79 1015.7
20260505185029 59 270 0.0 4.0 0.00 0.19 0.10 80 1015.7
20260505184538 58 197 1.0 4.0 0.00 0.19 0.10 80 1015.7
20260505184028 58 240 2.0 4.0 0.00 0.19 0.10 80 1015.6
20260505183528 58 0 0.0 3.0 0.00 0.19 0.10 81 1015.8
20260505183046 58 307 1.0 3.0 0.00 0.19 0.10 80 1015.8
20260505182527 58 0 0.0 2.0 0.00 0.19 0.10 81 1015.8
20260505182027 58 229 0.0 4.0 0.00 0.19 0.10 82 1015.8
20260505181545 57 0 0.0 5.0 0.00 0.19 0.10 82 1015.9
20260505181027 57 308 2.0 5.0 0.00 0.19 0.10 82 1015.8
20260505180530 57 271 1.0 5.0 0.00 0.19 0.10 83 1015.7
20260505180053 57 0 0.0 5.0 0.00 0.19 0.10 83 1015.7
20260505175529 57 203 1.0 5.0 0.00 0.19 0.10 83 1015.7
20260505175033 57 321 1.0 5.0 0.00 0.19 0.10 83 1015.7
20260505174602 57 270 2.0 4.0 0.00 0.19 0.10 84 1015.8
20260505174028 56 236 0.0 3.0 0.00 0.19 0.10 85 1015.6
20260505173532 56 205 0.0 6.0 0.00 0.19 0.10 85 1015.4
20260505173038 56 228 2.0 6.0 0.00 0.19 0.10 85 1015.4
20260505172531 56 0 0.0 6.0 0.00 0.19 0.10 86 1015.5
20260505172029 56 0 1.0 6.0 0.00 0.19 0.10 86 1015.5
20260505171539 56 281 1.0 6.0 0.00 0.19 0.10 85 1015.5
20260505171030 56 298 2.0 6.0 0.00 0.19 0.10 86 1015.5